Accueil
METAR-TAF:

METAR-TAF

Aéroports :

Woensdrecht, Pays-Bas

latitude: 51-27N, longitude: 004-20E, altitude: 20 m

Observation

Le bulletin a été fait il y a 14 minutes, à 19:25 UTC
Vent 5 kt de nord/nord-ouest, variant entre ouest et nord/nord-est
Température 17°C
Humidité 72%
Pression 1025 hPa
Visibilité 10 km ou plus
Ciel couvert à une hauteur de 34000 ft

METAR: EHWO 241925Z AUTO 34005KT 280V020 9999 OVC340 17/12 Q1025 BLU

Heure: 21:39 (19:39 UTC)

Prévision

Le bulletin a été fait il y a 7 heures et 6 minutes, à 12:33 UTC
Prévision valable du 24 à 13 UTC au 25 à 01 UTC
Vent 11 kt de ouest/nord-ouest
Visibilité 10 km ou plus
pas de nuages en-dessous de 1500 mètres et pas de cumulonimbus.
Evoluant progressivement
du 24 à 18 UTC au 24 à 20 UTC
Vent 5 kt de nord-ouest

TAF: EHWO 241233Z 2413/2501 29011KT CAVOK BECMG 2418/2420 32005KT

Observations et prévisions météorologiques de plus de 4000 aéroports (messages METAR et TAF).

Les stations disponibles sont représentées par des disques jaunes et rouges sur la carte.

Passer la souris dessus pour voir le nom de la station.

Cliquer dessus pour voir les observations et prévisions météorologiques.

Pour changer de carte: cliquez sur les boutons verts avec une croix noire pour zoomer, sur le bouton vert avec un tiret pour effectuer un zoom arrière, ou sur les flèches vertes pour les cartes adjacentes.


METAR-TAF: